createdAt,value
2023-01-21T05:00:42.642Z,1.80
2023-01-21T05:01:43.446Z,1.90
2023-01-21T05:02:42.531Z,2.20
2023-01-21T05:03:40.786Z,2.30
2023-01-21T05:04:40.801Z,2.30
2023-01-21T05:05:40.754Z,2.10
2023-01-21T05:06:40.801Z,2.60
2023-01-21T05:07:40.745Z,2.30
2023-01-21T05:08:40.924Z,2.30
2023-01-21T05:09:40.711Z,2.10
2023-01-21T05:10:40.720Z,2.50
2023-01-21T05:11:40.697Z,2.80
2023-01-21T05:12:40.689Z,2.00
2023-01-21T05:13:40.776Z,2.00
2023-01-21T05:14:40.690Z,2.80
2023-01-21T05:15:47.697Z,1.80
2023-01-21T05:16:40.713Z,2.70
2023-01-21T05:17:40.619Z,2.10
2023-01-21T05:18:40.642Z,1.80
2023-01-21T05:19:40.645Z,2.20
2023-01-21T05:20:40.849Z,2.10
2023-01-21T05:21:40.571Z,2.10
2023-01-21T05:22:40.580Z,2.00
2023-01-21T05:23:40.546Z,1.70
2023-01-21T05:24:40.564Z,2.60
2023-01-21T05:25:40.580Z,2.00
2023-01-21T05:26:40.528Z,1.70
2023-01-21T05:27:40.497Z,2.40
2023-01-21T05:28:40.526Z,2.20
2023-01-21T05:29:40.496Z,2.20
2023-01-21T05:30:41.813Z,2.80
2023-01-21T05:31:40.622Z,2.20
2023-01-21T05:32:40.491Z,2.20
2023-01-21T05:33:40.427Z,2.70
2023-01-21T05:34:40.437Z,2.10
2023-01-21T05:35:40.396Z,2.10
2023-01-21T05:36:40.447Z,2.00
2023-01-21T05:37:43.834Z,2.10
2023-01-21T05:38:40.408Z,2.80
2023-01-21T05:39:40.353Z,1.90
2023-01-21T05:40:40.363Z,2.50
2023-01-21T05:41:40.326Z,2.50
2023-01-21T05:42:40.342Z,2.60
2023-01-21T05:43:40.369Z,2.40
2023-01-21T05:44:40.304Z,2.00
2023-01-21T05:45:40.283Z,2.70
2023-01-21T05:46:40.304Z,2.50
2023-01-21T05:47:40.261Z,2.10
2023-01-21T05:48:40.270Z,2.40
2023-01-21T05:49:40.290Z,2.30
2023-01-21T05:50:40.242Z,2.00
2023-01-21T05:51:40.202Z,1.60
2023-01-21T05:52:40.227Z,2.10
2023-01-21T05:53:40.198Z,2.10
2023-01-21T05:54:52.536Z,2.40
2023-01-21T05:55:41.228Z,2.70
2023-01-21T05:56:40.175Z,2.80
2023-01-21T05:57:40.135Z,2.60
2023-01-21T05:58:40.150Z,2.00
2023-01-21T05:59:40.113Z,1.80
2023-01-21T06:00:40.120Z,2.30
2023-01-21T06:01:40.109Z,2.20
2023-01-21T06:02:40.164Z,2.60
2023-01-21T06:03:40.127Z,2.10
2023-01-21T06:04:40.087Z,2.00
2023-01-21T06:05:41.937Z,2.00
2023-01-21T06:06:40.045Z,1.80
2023-01-21T06:07:40.008Z,1.80
2023-01-21T06:08:40.024Z,2.40
2023-01-21T06:09:39.981Z,2.10
2023-01-21T06:10:39.982Z,2.20
2023-01-21T06:11:40.022Z,2.10
2023-01-21T06:12:39.978Z,2.10
2023-01-21T06:13:39.933Z,2.50
2023-01-21T06:14:39.950Z,2.80
2023-01-21T06:15:40.026Z,2.50
2023-01-21T06:16:39.914Z,1.80
2023-01-21T06:17:39.953Z,2.60
2023-01-21T06:18:39.909Z,2.00
2023-01-21T06:19:39.863Z,2.00
2023-01-21T06:20:39.887Z,1.80
2023-01-21T06:21:39.850Z,2.70
2023-01-21T06:22:39.879Z,2.00
2023-01-21T06:23:39.863Z,2.00
2023-01-21T06:24:39.925Z,2.10
2023-01-21T06:25:39.791Z,2.50
2023-01-21T06:26:39.818Z,2.60
2023-01-21T06:27:39.784Z,2.50
2023-01-21T06:28:39.786Z,1.90
2023-01-21T06:29:39.829Z,1.70
2023-01-21T06:30:39.752Z,2.10
2023-01-21T06:31:39.893Z,2.00
2023-01-21T06:32:39.752Z,2.20
2023-01-21T06:33:39.700Z,2.50
2023-01-21T06:34:39.711Z,2.20
2023-01-21T06:35:39.732Z,2.10
2023-01-21T06:36:39.682Z,1.60
2023-01-21T06:37:39.647Z,2.10
2023-01-21T06:38:39.665Z,2.20
2023-01-21T06:39:39.628Z,2.40
2023-01-21T06:40:39.617Z,1.90
2023-01-21T06:41:39.647Z,2.10
2023-01-21T06:42:39.598Z,2.10
2023-01-21T06:43:39.583Z,2.50
2023-01-21T06:44:39.594Z,1.90
2023-01-21T06:45:39.549Z,1.90
2023-01-21T06:46:43.365Z,2.10
2023-01-21T06:47:40.606Z,2.60
2023-01-21T06:48:39.531Z,2.60
2023-01-21T06:49:39.486Z,2.00
2023-01-21T06:50:39.509Z,2.30
2023-01-21T06:51:39.563Z,1.70
2023-01-21T06:52:39.479Z,2.10
2023-01-21T06:53:39.637Z,2.60
2023-01-21T06:54:39.454Z,2.40
2023-01-21T06:55:39.425Z,2.10
2023-01-21T06:56:39.434Z,2.00
2023-01-21T06:57:39.392Z,2.80
2023-01-21T06:58:39.403Z,2.30
2023-01-21T06:59:39.454Z,2.20
2023-01-21T07:00:39.386Z,1.80
2023-01-21T07:01:39.373Z,2.30
2023-01-21T07:02:39.391Z,2.30
2023-01-21T07:03:39.320Z,2.30
2023-01-21T07:04:39.350Z,2.20
2023-01-21T07:05:39.381Z,2.20
2023-01-21T07:06:39.302Z,2.30
2023-01-21T07:07:39.284Z,2.60
2023-01-21T07:08:39.296Z,1.80
2023-01-21T07:09:39.256Z,2.40
2023-01-21T07:10:39.252Z,2.20
2023-01-21T07:11:39.276Z,2.50
2023-01-21T07:12:39.259Z,2.40
2023-01-21T07:13:39.212Z,2.50
2023-01-21T07:14:39.226Z,2.60
2023-01-21T07:15:39.177Z,2.90
2023-01-21T07:16:39.184Z,1.90
2023-01-21T07:17:39.216Z,2.90
2023-01-21T07:18:39.156Z,2.80
2023-01-21T07:19:39.131Z,2.00
2023-01-21T07:20:40.763Z,2.70
2023-01-21T07:21:39.103Z,2.70
2023-01-21T07:22:39.102Z,2.40
2023-01-21T07:23:39.316Z,2.70
2023-01-21T07:24:39.105Z,2.30
2023-01-21T07:25:39.093Z,2.50
2023-01-21T07:26:39.041Z,2.00
2023-01-21T07:27:39.051Z,2.60
2023-01-21T07:28:39.019Z,2.80
2023-01-21T07:29:40.757Z,2.70
2023-01-21T07:30:39.046Z,2.60
2023-01-21T07:31:39.106Z,3.70
2023-01-21T07:32:38.967Z,3.10
2023-01-21T07:33:38.987Z,2.40
2023-01-21T07:34:38.947Z,2.00
2023-01-21T07:35:39.038Z,2.20
2023-01-21T07:36:38.942Z,2.70
2023-01-21T07:37:38.939Z,3.10
2023-01-21T07:38:38.911Z,2.40
2023-01-21T07:39:38.917Z,3.00
2023-01-21T07:40:38.883Z,2.40
2023-01-21T07:41:40.788Z,2.80
2023-01-21T07:42:38.971Z,2.80
2023-01-21T07:43:38.875Z,3.30
2023-01-21T07:44:38.835Z,3.20
2023-01-21T07:45:38.844Z,2.80
2023-01-21T07:46:38.890Z,2.70
2023-01-21T07:47:38.847Z,1.90
2023-01-21T07:48:38.782Z,2.60
2023-01-21T07:49:38.803Z,3.30
2023-01-21T07:50:38.783Z,3.40
2023-01-21T07:51:38.768Z,2.70
2023-01-21T07:52:38.761Z,2.20
2023-01-21T07:53:38.823Z,2.10
2023-01-21T07:54:38.702Z,2.70
2023-01-21T07:55:38.719Z,2.10
2023-01-21T07:56:38.687Z,2.60
2023-01-21T07:57:38.701Z,2.80
2023-01-21T07:58:38.653Z,3.00
2023-01-21T07:59:38.734Z,3.10
2023-01-21T08:00:38.635Z,2.30
2023-01-21T08:01:38.700Z,2.20
2023-01-21T08:02:38.635Z,2.10
2023-01-21T08:03:38.729Z,2.50
2023-01-21T08:04:38.602Z,2.60
2023-01-21T08:05:38.687Z,3.10
2023-01-21T08:06:38.661Z,3.00
2023-01-21T08:07:38.568Z,2.70
2023-01-21T08:08:38.560Z,2.80
2023-01-21T08:09:38.542Z,3.20
2023-01-21T08:10:38.526Z,3.20
2023-01-21T08:11:38.601Z,3.00
2023-01-21T08:12:38.504Z,3.00
2023-01-21T08:13:38.499Z,2.60
2023-01-21T08:14:38.484Z,3.10
2023-01-21T08:15:38.497Z,2.60
2023-01-21T08:16:38.489Z,3.70
2023-01-21T08:17:41.743Z,3.60
2023-01-21T08:18:38.480Z,3.40
2023-01-21T08:19:38.421Z,2.40
2023-01-21T08:20:38.380Z,2.80
2023-01-21T08:21:38.412Z,2.70
2023-01-21T08:22:38.361Z,2.60
2023-01-21T08:23:38.440Z,2.30
2023-01-21T08:24:38.339Z,2.30
2023-01-21T08:25:38.376Z,2.40
2023-01-21T08:26:38.315Z,2.70
2023-01-21T08:27:38.326Z,2.30
2023-01-21T08:28:38.306Z,2.60
2023-01-21T08:29:40.053Z,3.00
2023-01-21T08:30:38.294Z,2.20
2023-01-21T08:31:38.305Z,2.90
2023-01-21T08:32:38.254Z,2.40
2023-01-21T08:33:38.248Z,2.80
2023-01-21T08:34:38.216Z,3.10
2023-01-21T08:35:38.275Z,2.90
2023-01-21T08:36:38.205Z,2.40
2023-01-21T08:37:38.185Z,2.60
2023-01-21T08:38:38.163Z,2.70
2023-01-21T08:39:38.182Z,2.50
2023-01-21T08:40:38.134Z,2.80
2023-01-21T08:41:39.869Z,3.10
2023-01-21T08:42:38.121Z,2.60
2023-01-21T08:43:38.111Z,2.70
2023-01-21T08:44:38.101Z,2.50
2023-01-21T08:45:38.144Z,2.60
2023-01-21T08:46:38.059Z,3.50
2023-01-21T08:47:39.824Z,2.00
2023-01-21T08:48:38.039Z,2.90
2023-01-21T08:49:38.059Z,2.60
2023-01-21T08:50:38.012Z,3.10
2023-01-21T08:51:38.007Z,2.80
2023-01-21T08:52:37.995Z,2.50
2023-01-21T08:53:38.111Z,3.00
2023-01-21T08:54:37.963Z,2.60
2023-01-21T08:55:37.971Z,2.70
2023-01-21T08:56:37.944Z,2.60
2023-01-21T08:57:37.938Z,2.90
2023-01-21T08:58:37.952Z,3.70
2023-01-21T08:59:38.189Z,3.40
2023-01-21T09:00:38.193Z,2.40
2023-01-21T09:01:37.884Z,2.50
2023-01-21T09:02:37.852Z,2.70
2023-01-21T09:03:37.870Z,3.10
2023-01-21T09:04:37.842Z,3.80
2023-01-21T09:05:41.054Z,3.10
2023-01-21T09:06:37.801Z,2.50
2023-01-21T09:07:37.947Z,2.30
2023-01-21T09:08:37.788Z,3.00
2023-01-21T09:09:37.784Z,3.00
2023-01-21T09:10:39.481Z,3.00
2023-01-21T09:11:37.771Z,3.30
2023-01-21T09:12:37.746Z,2.60
2023-01-21T09:13:37.743Z,3.20
2023-01-21T09:14:37.700Z,3.50
2023-01-21T09:15:37.721Z,2.90
2023-01-21T09:16:37.840Z,2.40
2023-01-21T09:17:37.700Z,3.10
2023-01-21T09:18:37.661Z,3.00
2023-01-21T09:19:37.687Z,3.00
2023-01-21T09:20:37.739Z,3.00
2023-01-21T09:21:37.656Z,3.00
2023-01-21T09:22:38.724Z,2.50
2023-01-21T09:23:37.623Z,2.50
2023-01-21T09:24:37.603Z,2.50
2023-01-21T09:25:37.603Z,2.50
2023-01-21T09:26:37.554Z,2.80
2023-01-21T09:27:37.582Z,3.60
2023-01-21T09:28:37.611Z,3.10
2023-01-21T09:29:37.540Z,2.70
2023-01-21T09:30:37.578Z,3.60
2023-01-21T09:31:37.576Z,2.40
2023-01-21T09:32:37.491Z,3.40
2023-01-21T09:33:37.534Z,3.50
2023-01-21T09:34:40.734Z,3.40
2023-01-21T09:35:37.464Z,4.40
2023-01-21T09:36:37.431Z,4.00
2023-01-21T09:37:37.439Z,3.90
2023-01-21T09:38:37.408Z,4.00
2023-01-21T09:39:37.412Z,3.70
2023-01-21T09:40:37.464Z,2.90
2023-01-21T09:41:37.402Z,2.80
2023-01-21T09:42:42.651Z,2.80
2023-01-21T09:43:37.369Z,2.60
2023-01-21T09:44:37.328Z,3.00
2023-01-21T09:45:37.358Z,3.70
2023-01-21T09:46:37.298Z,2.90
2023-01-21T09:47:37.328Z,2.70
2023-01-21T09:48:39.033Z,3.90
2023-01-21T09:49:37.295Z,3.50
2023-01-21T09:50:37.256Z,2.80
2023-01-21T09:51:37.246Z,3.00
2023-01-21T09:52:37.248Z,2.70
2023-01-21T09:53:38.976Z,3.10
2023-01-21T09:54:37.199Z,3.00
2023-01-21T09:55:37.236Z,2.70
2023-01-21T09:56:37.173Z,3.10
2023-01-21T09:57:37.174Z,3.70
2023-01-21T09:58:37.157Z,3.40
2023-01-21T09:59:37.203Z,3.10
2023-01-21T10:00:37.149Z,3.30
2023-01-21T10:01:37.145Z,3.20
2023-01-21T10:02:37.109Z,3.10
2023-01-21T10:03:37.134Z,3.00
2023-01-21T10:04:37.128Z,4.30
2023-01-21T10:05:38.853Z,2.90
2023-01-21T10:06:37.084Z,3.60
2023-01-21T10:07:37.060Z,3.20
2023-01-21T10:08:37.034Z,3.00
2023-01-21T10:09:37.037Z,3.20
2023-01-21T10:10:37.222Z,2.90
2023-01-21T10:11:44.046Z,3.50
2023-01-21T10:12:36.968Z,4.20
2023-01-21T10:13:37.041Z,3.50
2023-01-21T10:14:36.957Z,3.60
2023-01-21T10:15:36.957Z,3.80
2023-01-21T10:16:36.978Z,3.80
2023-01-21T10:17:37.040Z,3.50
2023-01-21T10:18:36.897Z,3.20
2023-01-21T10:19:36.928Z,3.60
2023-01-21T10:20:36.882Z,3.30
2023-01-21T10:21:36.897Z,3.70
2023-01-21T10:22:36.858Z,4.80
2023-01-21T10:23:37.066Z,3.60
2023-01-21T10:24:36.826Z,3.70
2023-01-21T10:25:36.832Z,3.50
2023-01-21T10:26:36.823Z,3.40
2023-01-21T10:27:36.803Z,3.40
2023-01-21T10:28:36.775Z,3.30
2023-01-21T10:29:42.147Z,2.80
2023-01-21T10:30:36.819Z,3.90
2023-01-21T10:31:36.848Z,3.50
2023-01-21T10:32:36.735Z,3.80
2023-01-21T10:33:36.720Z,5.00
2023-01-21T10:34:36.702Z,3.30
2023-01-21T10:35:36.739Z,3.10
2023-01-21T10:36:36.678Z,3.70
2023-01-21T10:37:36.690Z,2.80
2023-01-21T10:38:36.661Z,3.40
2023-01-21T10:39:36.661Z,3.00
2023-01-21T10:40:36.676Z,3.30
2023-01-21T10:41:36.629Z,3.00
2023-01-21T10:42:36.597Z,2.80
2023-01-21T10:43:36.606Z,3.50
2023-01-21T10:44:36.575Z,3.50
2023-01-21T10:45:36.612Z,3.20
2023-01-21T10:46:36.617Z,3.90
2023-01-21T10:47:36.552Z,4.00
2023-01-21T10:48:36.524Z,3.10
2023-01-21T10:49:36.537Z,3.30
2023-01-21T10:50:36.534Z,3.50
2023-01-21T10:51:36.506Z,4.80
2023-01-21T10:52:36.516Z,3.30
2023-01-21T10:53:36.473Z,3.60
2023-01-21T10:54:36.464Z,2.80
2023-01-21T10:55:36.471Z,3.40
2023-01-21T10:56:36.435Z,4.00
2023-01-21T10:57:36.435Z,3.40
2023-01-21T10:58:36.493Z,3.60
2023-01-21T10:59:36.392Z,3.30
2023-01-21T11:00:36.382Z,3.30
2023-01-21T11:01:36.413Z,2.20
2023-01-21T11:02:36.432Z,3.40
2023-01-21T11:03:36.348Z,2.70
2023-01-21T11:04:36.372Z,3.10
2023-01-21T11:05:36.325Z,3.10
2023-01-21T11:06:36.316Z,2.80
2023-01-21T11:07:36.299Z,3.00
2023-01-21T11:08:36.315Z,3.30
2023-01-21T11:09:36.293Z,2.70
2023-01-21T11:10:37.984Z,3.10
2023-01-21T11:11:36.248Z,3.10
2023-01-21T11:12:36.218Z,2.90
2023-01-21T11:13:36.220Z,3.50
2023-01-21T11:14:36.178Z,3.30
2023-01-21T11:15:47.473Z,2.00
2023-01-21T11:16:36.166Z,3.80
2023-01-21T11:17:36.179Z,2.70
2023-01-21T11:18:36.132Z,2.90
2023-01-21T11:19:36.181Z,3.40
2023-01-21T11:20:36.133Z,2.20
2023-01-21T11:21:36.160Z,2.70
2023-01-21T11:22:36.077Z,3.60
2023-01-21T11:23:36.078Z,2.90
2023-01-21T11:24:36.056Z,3.20
2023-01-21T11:25:36.073Z,3.00
2023-01-21T11:26:36.039Z,3.20
2023-01-21T11:27:36.077Z,2.00
2023-01-21T11:28:36.004Z,2.70
2023-01-21T11:29:36.043Z,3.00
2023-01-21T11:30:48.740Z,3.10
2023-01-21T11:31:37.140Z,3.30
2023-01-21T11:32:35.957Z,2.60
2023-01-21T11:33:35.981Z,2.20
2023-01-21T11:34:41.161Z,2.60
2023-01-21T11:35:35.944Z,3.00
2023-01-21T11:36:35.904Z,2.80
2023-01-21T11:37:35.919Z,2.90
2023-01-21T11:38:35.915Z,3.00
2023-01-21T11:39:35.980Z,2.90
2023-01-21T11:40:35.912Z,3.70
2023-01-21T11:41:35.841Z,3.50
2023-01-21T11:42:35.841Z,3.10
2023-01-21T11:43:35.820Z,3.60
2023-01-21T11:44:35.816Z,2.80
2023-01-21T11:45:36.035Z,2.20
2023-01-21T11:46:35.827Z,2.60
2023-01-21T11:47:36.306Z,3.50
2023-01-21T11:48:35.791Z,3.20
2023-01-21T11:49:35.745Z,3.00
2023-01-21T11:50:35.748Z,3.80
2023-01-21T11:51:35.785Z,2.20
2023-01-21T11:52:35.750Z,2.50
2023-01-21T11:53:35.765Z,2.80
2023-01-21T11:54:35.715Z,3.30
2023-01-21T11:55:35.746Z,3.00
2023-01-21T11:56:35.678Z,2.50
2023-01-21T11:57:35.647Z,2.90
2023-01-21T11:58:35.675Z,3.10
2023-01-21T11:59:35.625Z,2.90
2023-01-21T12:00:35.642Z,2.90
2023-01-21T12:01:35.693Z,2.40
2023-01-21T12:02:35.652Z,3.80
2023-01-21T12:03:35.730Z,2.50
2023-01-21T12:04:35.620Z,3.40
2023-01-21T12:05:35.543Z,2.20
2023-01-21T12:06:36.971Z,3.70
2023-01-21T12:07:35.713Z,3.20
2023-01-21T12:08:35.537Z,3.70
2023-01-21T12:09:35.524Z,2.50
2023-01-21T12:10:35.503Z,3.10
2023-01-21T12:11:35.482Z,2.90
2023-01-21T12:12:35.492Z,3.40
2023-01-21T12:13:39.797Z,2.60
2023-01-21T12:14:35.453Z,2.80
2023-01-21T12:15:35.417Z,2.40
2023-01-21T12:16:35.451Z,3.30
2023-01-21T12:17:35.398Z,2.20
2023-01-21T12:18:35.403Z,3.10
2023-01-21T12:19:35.668Z,2.90
2023-01-21T12:20:35.381Z,3.00
2023-01-21T12:21:35.354Z,3.30
2023-01-21T12:22:35.359Z,2.80
2023-01-21T12:23:35.329Z,3.80
2023-01-21T12:24:35.353Z,3.40
2023-01-21T12:25:45.112Z,2.60
2023-01-21T12:26:35.390Z,2.80
2023-01-21T12:27:35.276Z,2.90
2023-01-21T12:28:35.281Z,2.90
2023-01-21T12:29:35.239Z,2.40
2023-01-21T12:30:35.311Z,2.70
2023-01-21T12:31:35.405Z,2.70
2023-01-21T12:32:35.271Z,2.70
2023-01-21T12:33:35.201Z,3.10
2023-01-21T12:34:35.214Z,3.80
2023-01-21T12:35:35.165Z,3.00
2023-01-21T12:36:35.200Z,3.70
2023-01-21T12:37:35.199Z,2.40
2023-01-21T12:38:35.205Z,2.90
2023-01-21T12:39:35.123Z,3.50
2023-01-21T12:40:35.168Z,2.70
2023-01-21T12:41:35.101Z,2.70
2023-01-21T12:42:35.116Z,2.30
2023-01-21T12:43:35.377Z,2.60
2023-01-21T12:44:35.085Z,2.60
2023-01-21T12:45:35.060Z,2.60
2023-01-21T12:46:35.122Z,3.10
2023-01-21T12:47:35.023Z,2.50
2023-01-21T12:48:35.068Z,2.90
2023-01-21T12:49:36.781Z,3.30
2023-01-21T12:50:35.029Z,2.50
2023-01-21T12:51:34.995Z,3.10
2023-01-21T12:52:34.984Z,2.80
2023-01-21T12:53:34.946Z,2.90
2023-01-21T12:54:34.987Z,2.30
2023-01-21T12:55:36.625Z,2.90
2023-01-21T12:56:34.939Z,2.70
2023-01-21T12:57:34.905Z,3.50
2023-01-21T12:58:34.910Z,2.30
2023-01-21T12:59:34.885Z,2.90
2023-01-21T13:00:35.095Z,2.60
2023-01-21T13:01:34.859Z,2.50
2023-01-21T13:02:34.876Z,2.50
2023-01-21T13:03:34.818Z,2.40
2023-01-21T13:04:34.861Z,2.40
2023-01-21T13:05:34.796Z,2.70
2023-01-21T13:06:52.365Z,2.20
2023-01-21T13:07:35.784Z,2.40
2023-01-21T13:08:34.795Z,3.00
2023-01-21T13:09:34.803Z,2.60
2023-01-21T13:10:34.796Z,2.30
2023-01-21T13:11:34.722Z,2.70
2023-01-21T13:12:34.794Z,2.90
2023-01-21T13:13:34.697Z,2.60
2023-01-21T13:14:34.700Z,2.10
2023-01-21T13:15:34.843Z,2.10
2023-01-21T13:16:34.725Z,2.40
2023-01-21T13:17:34.677Z,2.60
2023-01-21T13:18:34.670Z,3.20
2023-01-21T13:19:34.623Z,2.40
2023-01-21T13:20:34.639Z,2.40
2023-01-21T13:21:35.037Z,2.10
2023-01-21T13:22:34.605Z,2.30
2023-01-21T13:23:34.580Z,2.10
2023-01-21T13:24:34.582Z,2.00
2023-01-21T13:25:34.558Z,2.30
2023-01-21T13:26:34.649Z,2.70
2023-01-21T13:27:34.731Z,2.40
2023-01-21T13:28:34.520Z,2.30
2023-01-21T13:29:34.547Z,2.20
2023-01-21T13:30:34.520Z,1.80
2023-01-21T13:31:34.552Z,2.80
2023-01-21T13:32:34.475Z,3.20
2023-01-21T13:33:37.707Z,2.00
2023-01-21T13:34:34.453Z,2.20
2023-01-21T13:35:34.422Z,2.20
2023-01-21T13:36:34.442Z,2.30
2023-01-21T13:37:34.399Z,2.40
2023-01-21T13:38:34.410Z,2.80
2023-01-21T13:39:34.414Z,2.90
2023-01-21T13:40:34.375Z,1.90
2023-01-21T13:41:34.551Z,2.60
2023-01-21T13:42:34.350Z,2.00
2023-01-21T13:43:34.312Z,2.70
2023-01-21T13:44:34.344Z,2.50
2023-01-21T13:45:34.369Z,1.80
2023-01-21T13:46:34.304Z,1.80
2023-01-21T13:47:34.336Z,2.50
2023-01-21T13:48:34.293Z,2.60
2023-01-21T13:49:34.252Z,2.30
2023-01-21T13:50:34.260Z,1.90
2023-01-21T13:51:34.218Z,1.70
2023-01-21T13:52:34.211Z,2.60
2023-01-21T13:53:34.284Z,2.90
2023-01-21T13:54:34.195Z,2.20
2023-01-21T13:55:34.207Z,1.90
2023-01-21T13:56:34.179Z,2.70
2023-01-21T13:57:34.141Z,2.30
2023-01-21T13:58:34.152Z,2.60
2023-01-21T13:59:34.183Z,2.20
2023-01-21T14:00:34.211Z,2.90
2023-01-21T14:01:34.096Z,2.40
2023-01-21T14:02:34.169Z,2.10
2023-01-21T14:03:34.083Z,2.90
2023-01-21T14:04:34.071Z,3.90
2023-01-21T14:05:34.037Z,3.40
2023-01-21T14:06:34.070Z,2.40
2023-01-21T14:07:34.007Z,3.30
2023-01-21T14:08:34.104Z,2.40
2023-01-21T14:09:37.131Z,2.90
2023-01-21T14:10:33.985Z,2.30
2023-01-21T14:11:33.985Z,2.50
2023-01-21T14:12:33.977Z,2.40
2023-01-21T14:13:33.956Z,1.90
2023-01-21T14:14:35.715Z,2.00
2023-01-21T14:15:33.938Z,2.20
2023-01-21T14:16:33.987Z,2.10
2023-01-21T14:17:33.991Z,2.20
2023-01-21T14:18:33.895Z,2.20
2023-01-21T14:19:33.873Z,2.60
2023-01-21T14:20:33.916Z,2.50
2023-01-21T14:21:33.845Z,2.20
2023-01-21T14:22:34.201Z,2.20
2023-01-21T14:23:33.804Z,2.20
2023-01-21T14:24:33.870Z,2.40
2023-01-21T14:25:33.801Z,2.00
2023-01-21T14:26:33.873Z,2.20
2023-01-21T14:27:33.759Z,2.00
2023-01-21T14:28:33.771Z,2.70
2023-01-21T14:29:33.748Z,1.90
2023-01-21T14:30:33.840Z,2.30
2023-01-21T14:31:33.825Z,2.00
2023-01-21T14:32:33.776Z,2.50
2023-01-21T14:33:33.692Z,2.30
2023-01-21T14:34:33.687Z,2.50
2023-01-21T14:35:33.659Z,1.90
2023-01-21T14:36:33.655Z,2.20
2023-01-21T14:37:33.638Z,2.10
2023-01-21T14:38:36.840Z,2.20
2023-01-21T14:39:33.626Z,2.30
2023-01-21T14:40:33.627Z,2.10
2023-01-21T14:41:33.593Z,1.80
2023-01-21T14:42:34.765Z,2.20
2023-01-21T14:43:33.560Z,2.60
2023-01-21T14:44:33.573Z,2.20
2023-01-21T14:45:33.572Z,2.60
2023-01-21T14:46:33.588Z,2.10
2023-01-21T14:47:36.805Z,2.60
2023-01-21T14:48:33.522Z,1.90
2023-01-21T14:49:33.498Z,2.80
2023-01-21T14:50:33.494Z,2.30
2023-01-21T14:51:33.459Z,2.30
2023-01-21T14:52:33.484Z,3.00
2023-01-21T14:53:38.702Z,2.30
2023-01-21T14:54:33.445Z,2.50
2023-01-21T14:55:33.406Z,2.10
2023-01-21T14:56:33.417Z,2.10
2023-01-21T14:57:33.377Z,2.00
2023-01-21T14:58:33.383Z,2.40
2023-01-21T14:59:33.472Z,2.20
2023-01-21T15:00:33.356Z,2.20
2023-01-21T15:01:33.395Z,2.50
2023-01-21T15:02:33.384Z,1.70
2023-01-21T15:03:33.335Z,2.40
2023-01-21T15:04:33.320Z,2.70
2023-01-21T15:05:33.546Z,1.90
2023-01-21T15:06:33.288Z,2.40
2023-01-21T15:07:33.267Z,2.10
2023-01-21T15:08:33.266Z,1.90
2023-01-21T15:09:33.228Z,2.00
2023-01-21T15:10:33.234Z,2.10
2023-01-21T15:11:33.298Z,2.50
2023-01-21T15:12:33.212Z,1.80
2023-01-21T15:13:33.191Z,2.50
2023-01-21T15:14:33.183Z,2.30
2023-01-21T15:15:33.154Z,2.10
2023-01-21T15:16:33.274Z,1.60
2023-01-21T15:17:33.253Z,2.30
2023-01-21T15:18:33.232Z,2.10
2023-01-21T15:19:33.106Z,2.50
2023-01-21T15:20:33.113Z,1.80
2023-01-21T15:21:33.081Z,1.90
2023-01-21T15:22:33.080Z,2.20
2023-01-21T15:23:34.792Z,1.90
2023-01-21T15:24:33.068Z,2.60
2023-01-21T15:25:33.057Z,1.90
2023-01-21T15:26:33.040Z,2.60
2023-01-21T15:27:32.995Z,2.30
2023-01-21T15:28:33.038Z,1.80
2023-01-21T15:29:34.811Z,1.70
2023-01-21T15:30:33.105Z,1.70
2023-01-21T15:31:33.079Z,1.90
2023-01-21T15:32:32.969Z,1.30
2023-01-21T15:33:32.946Z,2.10
2023-01-21T15:34:32.956Z,1.50
2023-01-21T15:35:32.950Z,1.50
2023-01-21T15:36:32.920Z,1.60
2023-01-21T15:37:32.878Z,1.80
2023-01-21T15:38:32.885Z,1.60
2023-01-21T15:39:32.893Z,1.60
2023-01-21T15:40:34.624Z,2.00
2023-01-21T15:41:32.824Z,1.40
2023-01-21T15:42:32.849Z,1.10
2023-01-21T15:43:32.814Z,1.80
2023-01-21T15:44:32.973Z,1.10
2023-01-21T15:45:32.774Z,2.10
2023-01-21T15:46:32.974Z,3.10
2023-01-21T15:47:32.863Z,3.30
2023-01-21T15:48:41.180Z,2.90
2023-01-21T15:49:33.733Z,2.30
2023-01-21T15:50:32.713Z,2.40
2023-01-21T15:51:32.792Z,1.70
2023-01-21T15:52:34.467Z,2.30
2023-01-21T15:53:32.740Z,1.70
2023-01-21T15:54:32.678Z,2.00
2023-01-21T15:55:32.684Z,2.10
2023-01-21T15:56:32.643Z,1.90
2023-01-21T15:57:32.661Z,1.60
2023-01-21T15:58:32.819Z,1.90
2023-01-21T15:59:32.639Z,1.70
2023-01-21T16:00:32.602Z,1.40
2023-01-21T16:01:32.654Z,1.90
2023-01-21T16:02:32.719Z,2.30
2023-01-21T16:03:32.586Z,2.20
2023-01-21T16:04:32.639Z,2.40
2023-01-21T16:05:32.576Z,1.50
2023-01-21T16:06:32.516Z,1.60
2023-01-21T16:07:32.533Z,1.60
2023-01-21T16:08:32.493Z,2.10
2023-01-21T16:09:32.852Z,1.70
2023-01-21T16:10:32.479Z,1.70
2023-01-21T16:11:32.477Z,2.00
2023-01-21T16:12:32.442Z,1.40
2023-01-21T16:13:32.473Z,1.90
2023-01-21T16:14:32.435Z,1.50
2023-01-21T16:15:32.471Z,1.60
2023-01-21T16:16:32.401Z,1.40
2023-01-21T16:17:32.399Z,1.80
2023-01-21T16:18:32.393Z,1.40
2023-01-21T16:19:32.402Z,1.70
2023-01-21T16:20:32.638Z,2.20
2023-01-21T16:21:32.455Z,1.70
2023-01-21T16:22:32.320Z,1.50
2023-01-21T16:23:32.348Z,1.20
2023-01-21T16:24:32.306Z,2.10
2023-01-21T16:25:32.289Z,1.70
2023-01-21T16:26:33.206Z,1.80
2023-01-21T16:27:34.155Z,1.40
2023-01-21T16:28:32.267Z,2.10
2023-01-21T16:29:32.310Z,1.90
2023-01-21T16:30:33.335Z,1.40
2023-01-21T16:31:32.492Z,1.50
2023-01-21T16:32:32.181Z,1.60
2023-01-21T16:33:32.257Z,2.50
2023-01-21T16:34:32.154Z,1.80
2023-01-21T16:35:32.155Z,1.60
2023-01-21T16:36:32.194Z,1.30
2023-01-21T16:37:32.143Z,2.20
2023-01-21T16:38:32.123Z,1.10
2023-01-21T16:39:32.169Z,1.70
2023-01-21T16:40:32.092Z,2.00
2023-01-21T16:41:32.099Z,1.50
2023-01-21T16:42:37.316Z,2.00
2023-01-21T16:43:32.199Z,2.00
2023-01-21T16:44:32.033Z,2.10
2023-01-21T16:45:32.086Z,1.80
2023-01-21T16:46:32.131Z,1.90
2023-01-21T16:47:32.065Z,2.00
2023-01-21T16:48:33.843Z,1.50
2023-01-21T16:49:32.009Z,1.40
2023-01-21T16:50:31.979Z,1.20
2023-01-21T16:51:31.982Z,1.50
2023-01-21T16:52:31.943Z,1.40
2023-01-21T16:53:31.982Z,1.60
2023-01-21T16:54:32.117Z,2.20
2023-01-21T16:55:31.921Z,1.70
2023-01-21T16:56:31.883Z,2.00
2023-01-21T16:57:32.031Z,1.80
2023-01-21T16:58:31.865Z,1.90
2023-01-21T16:59:31.859Z,1.80
2023-01-21T17:00:32.731Z,1.60
2023-01-21T17:01:31.940Z,2.20
2023-01-21T17:02:31.985Z,2.40
2023-01-21T17:03:31.815Z,1.90
2023-01-21T17:04:31.825Z,1.50
2023-01-21T17:05:31.823Z,1.90
2023-01-21T17:06:33.669Z,2.10
2023-01-21T17:07:31.758Z,1.40
2023-01-21T17:08:31.781Z,2.10
2023-01-21T17:09:31.801Z,2.00
2023-01-21T17:10:31.829Z,1.70
2023-01-21T17:11:31.742Z,1.50
2023-01-21T17:12:32.010Z,2.00
2023-01-21T17:13:31.694Z,1.30
2023-01-21T17:14:31.671Z,1.60
2023-01-21T17:15:31.739Z,2.20
2023-01-21T17:16:38.653Z,1.90
2023-01-21T17:17:31.651Z,1.80
2023-01-21T17:18:31.674Z,2.30
2023-01-21T17:19:31.603Z,1.90
2023-01-21T17:20:31.643Z,2.00
2023-01-21T17:21:31.584Z,2.60
2023-01-21T17:22:31.563Z,2.10
2023-01-21T17:23:31.559Z,1.80
2023-01-21T17:24:31.638Z,1.40
2023-01-21T17:25:31.550Z,2.00
2023-01-21T17:26:31.552Z,1.30
2023-01-21T17:27:31.554Z,1.70
2023-01-21T17:28:31.479Z,1.70
2023-01-21T17:29:31.497Z,1.70
2023-01-21T17:30:31.571Z,2.00
2023-01-21T17:31:31.607Z,1.60
2023-01-21T17:32:31.464Z,1.90
2023-01-21T17:33:31.445Z,1.60
2023-01-21T17:34:31.412Z,2.20
2023-01-21T17:35:31.418Z,1.60
2023-01-21T17:36:34.765Z,2.00
2023-01-21T17:37:31.375Z,2.60
2023-01-21T17:38:31.361Z,1.70
2023-01-21T17:39:31.372Z,1.60
2023-01-21T17:40:31.355Z,2.00
2023-01-21T17:41:31.345Z,1.40
2023-01-21T17:42:31.371Z,1.80
2023-01-21T17:43:31.316Z,2.10
2023-01-21T17:44:31.290Z,1.60
2023-01-21T17:45:31.300Z,2.00
2023-01-21T17:46:31.380Z,1.80
2023-01-21T17:47:31.270Z,1.90
2023-01-21T17:48:31.289Z,1.90
2023-01-21T17:49:31.252Z,2.20
2023-01-21T17:50:31.212Z,1.80
2023-01-21T17:51:32.267Z,2.10
2023-01-21T17:52:31.189Z,1.90
2023-01-21T17:53:31.227Z,1.80
2023-01-21T17:54:31.359Z,1.40
2023-01-21T17:55:31.199Z,1.70
2023-01-21T17:56:31.126Z,1.60
2023-01-21T17:57:31.138Z,1.40
2023-01-21T17:58:31.113Z,1.60
2023-01-21T17:59:31.116Z,1.90
2023-01-21T18:00:39.316Z,1.80
2023-01-21T18:01:31.153Z,1.90
2023-01-21T18:02:31.103Z,2.00
2023-01-21T18:03:31.110Z,2.70
2023-01-21T18:04:34.360Z,2.30
2023-01-21T18:05:31.052Z,1.90
2023-01-21T18:06:31.235Z,1.90
2023-01-21T18:07:31.021Z,1.90
2023-01-21T18:08:30.983Z,1.70
2023-01-21T18:09:30.993Z,2.30
2023-01-21T18:10:30.961Z,1.50
2023-01-21T18:11:30.998Z,1.30
2023-01-21T18:12:31.057Z,2.10
2023-01-21T18:13:30.946Z,1.90
2023-01-21T18:14:30.919Z,1.70
2023-01-21T18:15:30.932Z,1.20
2023-01-21T18:16:32.909Z,1.70
2023-01-21T18:17:30.889Z,2.00
2023-01-21T18:18:30.859Z,1.70